Terminal Aerodrome Forecast
Issued by NWS

Home | Current Version | Previous Version | Graphics & Text | Print | Product List | Glossary On
Versions: 1 2 3 4 5 6 7 8 9 10 11 12 13 14 15 16 17
000
FTUS43 KIWX 021234 RRA
TAFSBN
TAF
KSBN 021234Z 0213/0312 23008KT P6SM SCT150
     FM021500 23015G23KT P6SM SCT150
     FM021900 23019G27KT P6SM SCT250
     FM030200 21015G22KT P6SM VCTS BKN050CB
     FM030700 23012KT P6SM BKN025=

USA.gov is the U.S. government's official web portal to all federal, state and local government web resources and services.